createdAt,value
2023-03-21T00:00:23.690Z,8.300
2023-03-21T00:01:22.885Z,9.699
2023-03-21T00:02:22.708Z,10.10
2023-03-21T00:03:22.653Z,10.60
2023-03-21T00:04:22.239Z,12.60
2023-03-21T00:05:22.796Z,8.699
2023-03-21T00:06:21.877Z,11
2023-03-21T00:07:22.268Z,7.300
2023-03-21T00:08:21.966Z,9.800
2023-03-21T00:09:22.720Z,7.900
2023-03-21T00:10:37.132Z,7.5
2023-03-21T00:11:21.803Z,10.89
2023-03-21T00:12:22.687Z,12
2023-03-21T00:13:22.280Z,8.899
2023-03-21T00:14:22.217Z,10.89
2023-03-21T00:15:24.959Z,10.39
2023-03-21T00:16:30.531Z,10.19
2023-03-21T00:17:20.494Z,10.5
2023-03-21T00:18:22.474Z,11.60
2023-03-21T00:19:22.515Z,8.300
2023-03-21T00:20:22.661Z,7.800
2023-03-21T00:21:46.553Z,10.10
2023-03-21T00:22:26.143Z,8.899
2023-03-21T00:23:22.513Z,9
2023-03-21T00:24:20.305Z,9.399
2023-03-21T00:26:22.883Z,9.300
2023-03-21T00:27:43.076Z,10.5
2023-03-21T00:28:22.480Z,11.30
2023-03-21T00:29:21.975Z,9.5
2023-03-21T00:30:23.283Z,7.199
2023-03-21T00:31:22.014Z,9.600
2023-03-21T00:32:22.671Z,10.19
2023-03-21T00:33:22.987Z,8.399
2023-03-21T00:34:37.077Z,10.19
2023-03-21T00:36:30.778Z,8.399
2023-03-21T00:37:22.401Z,9.100
2023-03-21T00:38:22.235Z,10.89
2023-03-21T00:39:22.426Z,10.5
2023-03-21T00:40:27.932Z,8.5
2023-03-21T00:41:39.180Z,8.199
2023-03-21T00:42:22.697Z,9.800
2023-03-21T00:43:21.874Z,9.5
2023-03-21T00:44:22.433Z,8.199
2023-03-21T00:45:22.981Z,8.5
2023-03-21T00:46:25.129Z,8.100
2023-03-21T00:47:24.123Z,9
2023-03-21T00:48:22.566Z,7.5
2023-03-21T00:49:22.332Z,9.300
2023-03-21T00:50:22.214Z,10.80
2023-03-21T00:51:21.783Z,9.5
2023-03-21T00:52:34.403Z,8.600
2023-03-21T00:53:22.571Z,8
2023-03-21T00:54:22.547Z,9.699
2023-03-21T00:55:22.568Z,9.199
2023-03-21T00:56:22.762Z,8.300
2023-03-21T00:57:29.275Z,9
2023-03-21T00:58:22.236Z,9.399
2023-03-21T00:59:22.636Z,8.800
2023-03-21T01:00:24.255Z,9.199
2023-03-21T01:01:25.472Z,8.600
2023-03-21T01:02:22.262Z,8.100
2023-03-21T01:03:25.341Z,8.5
2023-03-21T01:04:22.250Z,8.600
2023-03-21T01:06:22.116Z,8.100
2023-03-21T01:07:21.904Z,8.199
2023-03-21T01:08:28.051Z,8.5
2023-03-21T01:09:22.561Z,8.600
2023-03-21T01:10:22.575Z,7.699
2023-03-21T01:11:22.017Z,9.100
2023-03-21T01:12:22.667Z,7.400
2023-03-21T01:13:22.335Z,8.399
2023-03-21T01:14:23.692Z,7.300
2023-03-21T01:15:22.470Z,6.699
2023-03-21T01:16:22.838Z,7.199
2023-03-21T01:17:22.314Z,7.900
2023-03-21T01:18:22.237Z,8.100
2023-03-21T01:19:32.980Z,6.099
2023-03-21T01:20:22.795Z,7.099
2023-03-21T01:21:22.285Z,7.300
2023-03-21T01:22:22.008Z,8.399
2023-03-21T01:24:22.296Z,7.300
2023-03-21T01:25:23.118Z,8.899
2023-03-21T01:26:22.146Z,8.199
2023-03-21T01:27:22.854Z,8
2023-03-21T01:28:22.429Z,6.900
2023-03-21T01:29:22.400Z,9.399
2023-03-21T01:30:24.109Z,8.699
2023-03-21T01:31:21.927Z,8.399
2023-03-21T01:32:22.327Z,10
2023-03-21T01:33:21.817Z,6.900
2023-03-21T01:34:22.307Z,8.300
2023-03-21T01:35:21.884Z,10.69
2023-03-21T01:36:23.485Z,8
2023-03-21T01:37:22.458Z,9.199
2023-03-21T01:38:22.223Z,7.599
2023-03-21T01:39:21.940Z,7.900
2023-03-21T01:40:22.564Z,9.199
2023-03-21T01:41:26.188Z,7.099
2023-03-21T01:42:22.933Z,9.800
2023-03-21T01:43:22.129Z,9.100
2023-03-21T01:44:22.369Z,9.800
2023-03-21T01:45:22.463Z,8.399
2023-03-21T01:46:22.409Z,6.699
2023-03-21T01:47:22.447Z,8.800
2023-03-21T01:48:21.939Z,7.599
2023-03-21T01:49:22.376Z,7
2023-03-21T01:50:22.435Z,8.199
2023-03-21T01:51:22.113Z,8.5
2023-03-21T01:53:22.010Z,7.400
2023-03-21T01:54:22.343Z,7.5
2023-03-21T01:55:22.160Z,8
2023-03-21T01:56:22.187Z,7.699
2023-03-21T01:57:22.622Z,8.100
2023-03-21T01:58:21.854Z,7.099
2023-03-21T01:59:22.056Z,7.400
2023-03-21T02:00:23.552Z,8.300
2023-03-21T02:01:22.659Z,8.699
2023-03-21T02:02:22.655Z,7.099
2023-03-21T02:03:34.998Z,8.899
2023-03-21T02:04:21.908Z,8.800
2023-03-21T02:05:22.824Z,10.10
2023-03-21T02:06:21.985Z,9.800
2023-03-21T02:07:22.537Z,10.19
2023-03-21T02:08:25.918Z,10.5
2023-03-21T02:09:21.866Z,8.100
2023-03-21T02:10:22.416Z,8.600
2023-03-21T02:11:22.124Z,9.800
2023-03-21T02:12:22.497Z,8.800
2023-03-21T02:13:21.936Z,8.699
2023-03-21T02:14:29.016Z,9.800
2023-03-21T02:15:23.140Z,8.5
2023-03-21T02:16:22.258Z,9.399
2023-03-21T02:17:22.631Z,11.10
2023-03-21T02:18:22.265Z,8.300
2023-03-21T02:19:29.604Z,9.399
2023-03-21T02:20:22.753Z,10
2023-03-21T02:21:22.278Z,10.5
2023-03-21T02:22:21.841Z,8.699
2023-03-21T02:23:22.015Z,9.399
2023-03-21T02:24:21.946Z,9.199
2023-03-21T02:25:22.580Z,9.600
2023-03-21T02:26:24.785Z,9.199
2023-03-21T02:27:22.589Z,8.300
2023-03-21T02:29:22.706Z,7.900
2023-03-21T02:30:30.365Z,9.100
2023-03-21T02:31:22.192Z,8.800
2023-03-21T02:33:22.393Z,9.199
2023-03-21T02:34:22.074Z,11.60
2023-03-21T02:35:22.854Z,8.100
2023-03-21T02:36:22.492Z,9.600
2023-03-21T02:37:28.825Z,8.5
2023-03-21T02:38:21.074Z,11.30
2023-03-21T02:39:22.826Z,9.300
2023-03-21T02:40:22.934Z,10.10
2023-03-21T02:41:22.371Z,10.19
2023-03-21T02:42:22.733Z,9.199
2023-03-21T02:43:23.748Z,8.300
2023-03-21T02:44:22.665Z,8.199
2023-03-21T02:45:22.546Z,11
2023-03-21T02:46:24.367Z,8.199
2023-03-21T02:47:22.985Z,8.899
2023-03-21T02:48:29.382Z,7.800
2023-03-21T02:49:22.500Z,8.300
2023-03-21T02:50:22.568Z,10
2023-03-21T02:51:22.810Z,7.5
2023-03-21T02:52:37.331Z,8.300
2023-03-21T02:53:22.281Z,9.5
2023-03-21T02:54:32.564Z,8.199
2023-03-21T02:55:21.933Z,11.39
2023-03-21T02:56:22.189Z,9
2023-03-21T02:57:25.510Z,8.399
2023-03-21T02:59:23.097Z,7.400
2023-03-21T03:00:23.651Z,8.199
2023-03-21T03:01:21.973Z,8.600
2023-03-21T03:02:22.438Z,8.100
2023-03-21T03:03:33.313Z,9.800
2023-03-21T03:04:22.761Z,7.900
2023-03-21T03:05:22.354Z,8.399
2023-03-21T03:06:22.181Z,9.600
2023-03-21T03:07:21.756Z,9.399
2023-03-21T03:08:26.641Z,8.600
2023-03-21T03:09:21.934Z,7.5
2023-03-21T03:10:23.024Z,8.800
2023-03-21T03:11:21.945Z,7.800
2023-03-21T03:12:22.518Z,10.80
2023-03-21T03:13:21.952Z,10.10
2023-03-21T03:14:41.706Z,9.600
2023-03-21T03:15:22.297Z,6.5
2023-03-21T03:16:22.015Z,9.300
2023-03-21T03:17:22.219Z,8.800
2023-03-21T03:18:22.345Z,9.899
2023-03-21T03:19:22.545Z,12.19
2023-03-21T03:20:22.123Z,9.300
2023-03-21T03:21:21.868Z,10.39
2023-03-21T03:22:21.897Z,10.89
2023-03-21T03:23:21.745Z,10
2023-03-21T03:24:22.058Z,10.10
2023-03-21T03:26:21.606Z,10.60
2023-03-21T03:27:22.488Z,9.800
2023-03-21T03:28:23.001Z,10.19
2023-03-21T03:29:22.033Z,10.69
2023-03-21T03:30:39.292Z,9.600
2023-03-21T03:31:22.494Z,11
2023-03-21T03:32:30.251Z,11.39
2023-03-21T03:33:22.511Z,11.10
2023-03-21T03:34:21.690Z,7.5
2023-03-21T03:35:22.588Z,8.300
2023-03-21T03:36:31.604Z,10
2023-03-21T03:37:21.759Z,8.899
2023-03-21T03:38:22.111Z,11.5
2023-03-21T03:39:22.214Z,10.60
2023-03-21T03:40:22.339Z,10.80
2023-03-21T03:41:22.072Z,9.199
2023-03-21T03:42:28.531Z,9.600
2023-03-21T03:43:22.248Z,8.100
2023-03-21T03:44:22.592Z,9
2023-03-21T03:45:22.122Z,8.899
2023-03-21T03:46:22.260Z,9.100
2023-03-21T03:48:22.101Z,10.10
2023-03-21T03:49:22.435Z,8.399
2023-03-21T03:50:22.111Z,9.699
2023-03-21T03:52:22.320Z,8.899
2023-03-21T03:53:21.768Z,11.19
2023-03-21T03:54:21.919Z,8.699
2023-03-21T03:55:22.222Z,11.5
2023-03-21T03:56:22.395Z,9.300
2023-03-21T03:57:21.871Z,11
2023-03-21T03:58:24.204Z,8.399
2023-03-21T03:59:21.960Z,9.5
2023-03-21T04:00:23.554Z,7.5
2023-03-21T04:01:22.576Z,10.19
2023-03-21T04:02:22.263Z,9.800
2023-03-21T04:03:21.963Z,8.199
2023-03-21T04:04:22.582Z,9.399
2023-03-21T04:05:22.831Z,9.899
2023-03-21T04:06:22.346Z,10.80
2023-03-21T04:07:22.777Z,10
2023-03-21T04:08:22.168Z,8.800
2023-03-21T04:09:28.957Z,10.10
2023-03-21T04:11:22.113Z,9.199
2023-03-21T04:12:22.185Z,8.699
2023-03-21T04:13:22.210Z,9.399
2023-03-21T04:14:22.497Z,8.600
2023-03-21T04:15:22.373Z,9.899
2023-03-21T04:16:21.982Z,9.399
2023-03-21T04:17:22.085Z,11.39
2023-03-21T04:18:22.467Z,8.899
2023-03-21T04:19:21.930Z,8.800
2023-03-21T04:20:34.158Z,9.199
2023-03-21T04:21:22.069Z,13
2023-03-21T04:22:22.548Z,11.10
2023-03-21T04:23:22.202Z,10.5
2023-03-21T04:24:21.909Z,9.300
2023-03-21T04:25:32.672Z,10.89
2023-03-21T04:26:22.559Z,9.899
2023-03-21T04:27:22.332Z,9.600
2023-03-21T04:28:22.140Z,9.399
2023-03-21T04:29:22.573Z,10.69
2023-03-21T04:30:23.014Z,9.100
2023-03-21T04:31:26.018Z,9.600
2023-03-21T04:32:21.830Z,10.10
2023-03-21T04:33:22.185Z,9.899
2023-03-21T04:34:22.361Z,11.30
2023-03-21T04:35:22.418Z,9.100
2023-03-21T04:36:22.564Z,9.600
2023-03-21T04:37:22.734Z,7.699
2023-03-21T04:38:22.135Z,11.39
2023-03-21T04:39:21.723Z,15.19
2023-03-21T04:40:22.379Z,9.699
2023-03-21T04:41:22.361Z,10.19
2023-03-21T04:42:22.749Z,10.89
2023-03-21T04:43:22.304Z,9
2023-03-21T04:44:22.173Z,9.399
2023-03-21T04:45:23.027Z,12.5
2023-03-21T04:46:22.285Z,8.5
2023-03-21T04:47:22.321Z,10.5
2023-03-21T04:48:22.132Z,9.399
2023-03-21T04:49:22.605Z,10.19
2023-03-21T04:50:22.208Z,9.899
2023-03-21T04:52:24.319Z,8.800
2023-03-21T04:54:21.834Z,9.800
2023-03-21T04:55:22.520Z,8.399
2023-03-21T04:56:22.426Z,9.100
2023-03-21T04:57:21.984Z,10.39
2023-03-21T04:58:22.232Z,8
2023-03-21T04:59:21.935Z,12.80
2023-03-21T05:00:23.632Z,8.699
2023-03-21T05:01:22.421Z,8.800
2023-03-21T05:02:22.097Z,9.300
2023-03-21T05:03:21.777Z,11.69
2023-03-21T05:04:22.277Z,13.39
2023-03-21T05:05:22.023Z,9.899
2023-03-21T05:06:21.819Z,12.89
2023-03-21T05:07:22.082Z,10.89
2023-03-21T05:08:22.318Z,10.60
2023-03-21T05:09:22.410Z,11.89
2023-03-21T05:10:22.488Z,10.10
2023-03-21T05:11:22.606Z,8.800
2023-03-21T05:12:22.300Z,8.100
2023-03-21T05:14:22.317Z,10.30
2023-03-21T05:15:22.258Z,9.5
2023-03-21T05:16:22.178Z,8.399
2023-03-21T05:17:22.104Z,9.899
2023-03-21T05:18:22.285Z,7.699
2023-03-21T05:19:22.240Z,10.10
2023-03-21T05:20:22.804Z,11.39
2023-03-21T05:21:22.581Z,11.69
2023-03-21T05:22:21.940Z,9.699
2023-03-21T05:23:22.030Z,11
2023-03-21T05:24:21.796Z,9.899
2023-03-21T05:25:22.789Z,7.699
2023-03-21T05:26:22.126Z,10.10
2023-03-21T05:27:22.049Z,7.900
2023-03-21T05:28:21.737Z,10.39
2023-03-21T05:29:22.111Z,9.5
2023-03-21T05:30:23.072Z,11.19
2023-03-21T05:31:21.779Z,10.10
2023-03-21T05:32:22.439Z,11.19
2023-03-21T05:33:21.869Z,10
2023-03-21T05:34:22.336Z,10.80
2023-03-21T05:35:22.580Z,8.699
2023-03-21T05:36:21.988Z,8.600
2023-03-21T05:37:22.793Z,9.5
2023-03-21T05:38:23.131Z,9.199
2023-03-21T05:39:22.456Z,9.899
2023-03-21T05:40:22.707Z,8.800
2023-03-21T05:41:23.191Z,9.100
2023-03-21T05:42:22.266Z,9.300
2023-03-21T05:43:22.230Z,9.800
2023-03-21T05:44:21.761Z,9.300
2023-03-21T05:45:22.205Z,10.10
2023-03-21T05:46:22.004Z,9.300
2023-03-21T05:47:27.296Z,8.699
2023-03-21T05:48:22.401Z,9
2023-03-21T05:49:22.092Z,9.100
2023-03-21T05:50:22.909Z,9.800
2023-03-21T05:51:22.056Z,11.60
2023-03-21T05:52:22.398Z,9.199
2023-03-21T05:53:23.210Z,10.60
2023-03-21T05:54:22.053Z,11.80
2023-03-21T05:55:23.121Z,9.899
2023-03-21T05:56:22.276Z,10.10
2023-03-21T05:57:21.729Z,12.39
2023-03-21T05:58:22.476Z,11.39
2023-03-21T05:59:22.330Z,9.399
2023-03-21T06:00:23.048Z,10
2023-03-21T06:01:22.676Z,10.39
2023-03-21T06:02:22.458Z,9.199
2023-03-21T06:03:22.757Z,8.699
2023-03-21T06:04:22.111Z,13.10
2023-03-21T06:05:22.271Z,9.199
2023-03-21T06:06:22.776Z,11.80
2023-03-21T06:07:23.001Z,9
2023-03-21T06:08:22.497Z,10
2023-03-21T06:09:22.488Z,9.699
2023-03-21T06:10:23.495Z,8.899
2023-03-21T06:11:22.967Z,8.5
2023-03-21T06:12:22.997Z,12.60
2023-03-21T06:13:22.358Z,9.199
2023-03-21T06:14:22.356Z,9.600
2023-03-21T06:15:23.369Z,12.39
2023-03-21T06:16:22.627Z,9.899
2023-03-21T06:17:22.357Z,11.69
2023-03-21T06:18:22.347Z,9.899
2023-03-21T06:19:22.507Z,10
2023-03-21T06:20:22.695Z,11.39
2023-03-21T06:21:22.466Z,10.5
2023-03-21T06:22:22.711Z,10.19
2023-03-21T06:23:22.681Z,11
2023-03-21T06:24:22.141Z,11.19
2023-03-21T06:25:22.079Z,9.699
2023-03-21T06:26:22.324Z,10
2023-03-21T06:27:21.744Z,10.80
2023-03-21T06:28:22.482Z,10.19
2023-03-21T06:29:22.622Z,9.899
2023-03-21T06:30:22.922Z,11.5
2023-03-21T06:31:22.833Z,11.80
2023-03-21T06:32:22.632Z,10.89
2023-03-21T06:33:44.131Z,10.80
2023-03-21T06:34:22.372Z,11.19
2023-03-21T06:35:22.519Z,11
2023-03-21T06:36:21.666Z,10.39
2023-03-21T06:37:22.755Z,11.5
2023-03-21T06:38:21.922Z,10.89
2023-03-21T06:39:22.352Z,9.800
2023-03-21T06:40:22.217Z,10.69
2023-03-21T06:41:22.477Z,10.19
2023-03-21T06:42:22.452Z,10.10
2023-03-21T06:43:22.490Z,10.30
2023-03-21T06:44:21.944Z,12
2023-03-21T06:45:22.102Z,10.39
2023-03-21T06:46:23.042Z,9
2023-03-21T06:47:22.520Z,8.899
2023-03-21T06:49:22.060Z,9.5
2023-03-21T06:50:22.640Z,12.10
2023-03-21T06:51:22.886Z,9.699
2023-03-21T06:52:22.333Z,8.300
2023-03-21T06:53:22.626Z,9.899
2023-03-21T06:54:22.961Z,7.800
2023-03-21T06:55:22.337Z,10.19
2023-03-21T06:56:22.194Z,10.60
2023-03-21T06:57:22.308Z,10.80
2023-03-21T06:58:22.201Z,9.699
2023-03-21T06:59:22.496Z,9.899
2023-03-21T07:01:22.497Z,12.80
2023-03-21T07:02:22.823Z,11.60
2023-03-21T07:03:22.453Z,10.80
2023-03-21T07:05:22.364Z,10.39
2023-03-21T07:06:21.804Z,12.10
2023-03-21T07:07:22.814Z,11.69
2023-03-21T07:08:21.965Z,12.5
2023-03-21T07:09:22.571Z,11.89
2023-03-21T07:10:22.363Z,12
2023-03-21T07:11:22.471Z,14
2023-03-21T07:12:22.203Z,10.30
2023-03-21T07:13:22.251Z,9.5
2023-03-21T07:14:22.597Z,10.69
2023-03-21T07:15:23.231Z,10
2023-03-21T07:16:22.089Z,13.10
2023-03-21T07:17:22.551Z,11.30
2023-03-21T07:18:22.724Z,12.10
2023-03-21T07:19:22.927Z,12
2023-03-21T07:20:23.693Z,12.69
2023-03-21T07:21:22.504Z,12.19
2023-03-21T07:23:22.861Z,10.5
2023-03-21T07:24:25.169Z,9.899
2023-03-21T07:25:23.041Z,10.19
2023-03-21T07:26:22.350Z,10.60
2023-03-21T07:27:22.258Z,12.30
2023-03-21T07:28:22.884Z,10.60
2023-03-21T07:29:22.385Z,10.30
2023-03-21T07:30:22.973Z,9.399
2023-03-21T07:31:22.892Z,10.10
2023-03-21T07:32:23.311Z,8.699
2023-03-21T07:33:23.662Z,9.399
2023-03-21T07:34:23.808Z,9.899
2023-03-21T07:35:22.948Z,10.60
2023-03-21T07:36:23.374Z,7.800
2023-03-21T07:37:23.024Z,11.60
2023-03-21T07:38:23.410Z,10.60
2023-03-21T07:39:23.262Z,8.699
2023-03-21T07:40:22.684Z,10.10
2023-03-21T07:41:23.108Z,8.5
2023-03-21T07:42:22.661Z,9.899
2023-03-21T07:44:22.802Z,10.10
2023-03-21T07:45:23.697Z,10.5
2023-03-21T07:46:23.240Z,11.89
2023-03-21T07:47:22.863Z,11.5
2023-03-21T07:48:22.812Z,12.19
2023-03-21T07:49:22.864Z,8.399
2023-03-21T07:50:23.584Z,11.5
2023-03-21T07:51:23.400Z,12.60
2023-03-21T07:52:23.306Z,12.10
2023-03-21T07:53:23.066Z,9.699
2023-03-21T07:54:22.936Z,11.10
2023-03-21T07:55:23.257Z,9.199
2023-03-21T07:56:22.754Z,10.60
2023-03-21T07:57:23.934Z,11.39
2023-03-21T07:58:23.432Z,12
2023-03-21T07:59:22.919Z,10.30
2023-03-21T08:00:24.516Z,11.80
2023-03-21T08:01:23.382Z,11.19
2023-03-21T08:02:22.885Z,11.69
2023-03-21T08:03:24.006Z,10.19
2023-03-21T08:04:23.394Z,10.89
2023-03-21T08:05:24.236Z,10.39
2023-03-21T08:06:23.274Z,10
2023-03-21T08:07:23.765Z,9.800
2023-03-21T08:08:22.947Z,10.5
2023-03-21T08:09:24.107Z,12.39
2023-03-21T08:10:24.159Z,11.89
2023-03-21T08:11:23.318Z,12.5
2023-03-21T08:12:23.663Z,12.30
2023-03-21T08:13:23.729Z,13.30
2023-03-21T08:14:28.763Z,16.39
2023-03-21T08:15:23.487Z,11.10
2023-03-21T08:16:24.012Z,11.30
2023-03-21T08:17:23.962Z,10.89
2023-03-21T08:18:28.940Z,13.5
2023-03-21T08:19:24.518Z,11.69
2023-03-21T08:20:24.436Z,12.80
2023-03-21T08:21:23.870Z,11
2023-03-21T08:22:23.644Z,11.89
2023-03-21T08:23:23.103Z,11.60
2023-03-21T08:24:23.274Z,12.60
2023-03-21T08:25:23.344Z,11.10
2023-03-21T08:26:23.156Z,11.39
2023-03-21T08:27:23.520Z,10
2023-03-21T08:28:23.493Z,9.5
2023-03-21T08:29:23.795Z,9.899
2023-03-21T08:30:31.941Z,12.39
2023-03-21T08:31:23.710Z,11.39
2023-03-21T08:32:23.483Z,12.80
2023-03-21T08:33:23.441Z,15.10
2023-03-21T08:34:23.415Z,10.69
2023-03-21T08:35:23.334Z,11
2023-03-21T08:37:23.745Z,9
2023-03-21T08:38:23.685Z,11.19
2023-03-21T08:39:24.366Z,10.89
2023-03-21T08:40:23.808Z,10.19
2023-03-21T08:41:23.174Z,10.30
2023-03-21T08:42:23.756Z,10.60
2023-03-21T08:43:23.810Z,11.30
2023-03-21T08:44:23.393Z,9.600
2023-03-21T08:45:23.578Z,10.60
2023-03-21T08:46:23.313Z,10.19
2023-03-21T08:47:22.595Z,10.89
2023-03-21T08:49:23.912Z,10.30
2023-03-21T08:50:23.089Z,11.5
2023-03-21T08:51:22.903Z,10.19
2023-03-21T08:52:23.094Z,10
2023-03-21T08:53:23.686Z,8.800
2023-03-21T08:54:22.985Z,10.39
2023-03-21T08:55:23.566Z,10.10
2023-03-21T08:56:23.891Z,9
2023-03-21T08:57:23.123Z,10.5
2023-03-21T08:58:23.312Z,9.699
2023-03-21T08:59:23.532Z,9
2023-03-21T09:00:24.757Z,9.600
2023-03-21T09:01:23.706Z,11.5
2023-03-21T09:02:22.820Z,10.80
2023-03-21T09:03:23.147Z,11.10
2023-03-21T09:04:23.222Z,10.5
2023-03-21T09:05:23.200Z,9
2023-03-21T09:06:22.905Z,9.600
2023-03-21T09:07:23.178Z,8.899
2023-03-21T09:08:23.263Z,9.800
2023-03-21T09:09:23.420Z,9.300
2023-03-21T09:10:23.922Z,11.39
2023-03-21T09:11:22.858Z,9.899
2023-03-21T09:12:23.249Z,10.60
2023-03-21T09:13:23.298Z,9.699
2023-03-21T09:15:28.037Z,9.300
2023-03-21T09:16:23.625Z,11.10
2023-03-21T09:17:23.284Z,10.10
2023-03-21T09:18:23.218Z,13
2023-03-21T09:19:23.863Z,10.39
2023-03-21T09:20:23.450Z,10.19
2023-03-21T09:21:23.409Z,10.5
2023-03-21T09:22:23.845Z,11.39
2023-03-21T09:23:23.957Z,12.5
2023-03-21T09:24:23.890Z,10.89
2023-03-21T09:25:23.548Z,10.30
2023-03-21T09:26:23.022Z,10.10
2023-03-21T09:27:23.572Z,11.39
2023-03-21T09:28:23.485Z,11.19
2023-03-21T09:29:23.306Z,14.80
2023-03-21T09:30:25.985Z,13.89
2023-03-21T09:31:23.655Z,10.5
2023-03-21T09:32:23.013Z,10.89
2023-03-21T09:33:23.058Z,10.10
2023-03-21T09:34:23.195Z,11.10
2023-03-21T09:35:23.154Z,11.60
2023-03-21T09:36:23.157Z,11.10
2023-03-21T09:37:23.269Z,12.69
2023-03-21T09:38:23.657Z,11.60
2023-03-21T09:39:22.718Z,11.39
2023-03-21T09:40:23.049Z,13
2023-03-21T09:41:23.815Z,12.39
2023-03-21T09:42:22.810Z,11.5
2023-03-21T09:43:23.428Z,10.89
2023-03-21T09:44:23.504Z,13.69
2023-03-21T09:45:23.120Z,13.60
2023-03-21T09:46:24.092Z,10.39
2023-03-21T09:47:23.226Z,12
2023-03-21T09:48:23.575Z,13.30
2023-03-21T09:49:23.603Z,10.69
2023-03-21T09:50:24.118Z,12
2023-03-21T09:51:23.378Z,11.89
2023-03-21T09:52:23.719Z,10.30
2023-03-21T09:53:23.269Z,12.89
2023-03-21T09:55:23.428Z,11.69
2023-03-21T09:56:23.552Z,12.39
2023-03-21T09:57:23.043Z,12.19
2023-03-21T09:58:23.220Z,9.800
2023-03-21T09:59:23.893Z,11.5
2023-03-21T10:00:25.075Z,12.69
2023-03-21T10:02:23.777Z,11.80
2023-03-21T10:03:23.945Z,12.89
2023-03-21T10:04:23.557Z,11.39
2023-03-21T10:05:23.795Z,11.60
2023-03-21T10:06:23.964Z,12.19
2023-03-21T10:07:23.515Z,11.39
2023-03-21T10:08:23.307Z,8.5
2023-03-21T10:09:24.073Z,9.800
2023-03-21T10:10:24.240Z,9.899
2023-03-21T10:12:23.749Z,10.89
2023-03-21T10:13:23.625Z,8.600
2023-03-21T10:14:24.156Z,8.899
2023-03-21T10:15:24.282Z,9.5
2023-03-21T10:17:24.867Z,11.39
2023-03-21T10:18:24.092Z,10
2023-03-21T10:19:23.858Z,10.39
2023-03-21T10:20:23.752Z,10.5
2023-03-21T10:21:47.447Z,8.699
2023-03-21T10:22:32.120Z,9.699
2023-03-21T10:23:22.813Z,8.699
2023-03-21T10:24:23.521Z,11.30
2023-03-21T10:25:23.951Z,9.399
2023-03-21T10:26:23.627Z,9.100
2023-03-21T10:27:23.802Z,9.399
2023-03-21T10:28:23.039Z,9.600
2023-03-21T10:29:23.756Z,7.800
2023-03-21T10:30:23.723Z,9.800
2023-03-21T10:31:22.457Z,8
2023-03-21T10:32:23.244Z,10
2023-03-21T10:33:22.780Z,8.399
2023-03-21T10:34:23.322Z,9.100
2023-03-21T10:35:22.797Z,7.900
2023-03-21T10:36:23.076Z,9.100
2023-03-21T10:37:23.189Z,10.10
2023-03-21T10:38:23.096Z,11
2023-03-21T10:39:22.998Z,8.699
2023-03-21T10:40:23.739Z,10.19
2023-03-21T10:41:23.193Z,9.5
2023-03-21T10:42:23.175Z,8.399
2023-03-21T10:43:22.974Z,10.60
2023-03-21T10:44:23.474Z,9.899
2023-03-21T10:45:23.528Z,10.39
2023-03-21T10:46:23.997Z,8.199
2023-03-21T10:47:23.066Z,9.5
2023-03-21T10:48:23.428Z,7.400
2023-03-21T10:49:23.115Z,10.69
2023-03-21T10:50:23.750Z,9.100
2023-03-21T10:51:23.693Z,8.399
2023-03-21T10:52:23.158Z,9.199
2023-03-21T10:53:23.715Z,7.5
2023-03-21T10:54:23.820Z,7.900
2023-03-21T10:55:24.624Z,9
2023-03-21T10:56:26.602Z,10.5
2023-03-21T10:57:25.219Z,8.199
2023-03-21T10:58:24.336Z,10.19
2023-03-21T10:59:23.973Z,7.5
2023-03-21T11:00:24.624Z,9.100
2023-03-21T11:01:24.144Z,8.699
2023-03-21T11:02:23.952Z,7.800
2023-03-21T11:03:38.617Z,9.199
2023-03-21T11:04:23.123Z,10.80
2023-03-21T11:05:38.112Z,8.899
2023-03-21T11:06:23.733Z,8.5
2023-03-21T11:07:23.675Z,9.199
2023-03-21T11:08:23.585Z,8.199
2023-03-21T11:09:23.536Z,6
2023-03-21T11:10:28.833Z,7.199
2023-03-21T11:11:23.636Z,8.600
2023-03-21T11:12:23.155Z,9.699
2023-03-21T11:13:23.399Z,11.60
2023-03-21T11:14:23.647Z,9.699
2023-03-21T11:15:24.403Z,7.300
2023-03-21T11:16:23.652Z,8.399
2023-03-21T11:17:23.369Z,6.800
2023-03-21T11:18:23.333Z,8.5
2023-03-21T11:19:23.777Z,7.300
2023-03-21T11:20:23.834Z,9.800
2023-03-21T11:21:23.769Z,11.30
2023-03-21T11:22:23.331Z,7.699
2023-03-21T11:23:23.450Z,5.800
2023-03-21T11:24:23.988Z,7.199
2023-03-21T11:25:24.109Z,7.900
2023-03-21T11:26:23.415Z,6.699
2023-03-21T11:27:23.472Z,9
2023-03-21T11:28:23.150Z,6.699
2023-03-21T11:29:23.824Z,7.400
2023-03-21T11:30:23.610Z,7
2023-03-21T11:32:26.417Z,6
2023-03-21T11:34:23.516Z,6.300
2023-03-21T11:35:23.288Z,7.699
2023-03-21T11:36:22.688Z,6
2023-03-21T11:37:23.479Z,5.900
2023-03-21T11:38:23.286Z,5.400
2023-03-21T11:39:23.758Z,5.800
2023-03-21T11:40:23.887Z,6.5
2023-03-21T11:41:23.275Z,5.099
2023-03-21T11:42:23.402Z,4.800
2023-03-21T11:43:23.513Z,5.599
2023-03-21T11:45:23.723Z,6
2023-03-21T11:46:23.319Z,5.099
2023-03-21T11:47:23.277Z,6.099
2023-03-21T11:48:23.170Z,5.900
2023-03-21T11:49:23.282Z,5.5
2023-03-21T11:50:23.395Z,4.800
2023-03-21T11:51:23.553Z,6
2023-03-21T11:52:23.217Z,5.199
2023-03-21T11:53:23.275Z,5.900
2023-03-21T11:54:23.342Z,6.900
2023-03-21T11:55:24.141Z,6.599
2023-03-21T11:56:22.785Z,5.900
2023-03-21T11:57:23.314Z,5.699
2023-03-21T11:58:23.177Z,6.199
2023-03-21T11:59:23.844Z,4.900
2023-03-21T12:00:24.548Z,5.800
2023-03-21T12:01:23.640Z,4.599
2023-03-21T12:02:22.751Z,6
2023-03-21T12:03:23.886Z,5.900
2023-03-21T12:04:23.324Z,6.800
2023-03-21T12:05:23.175Z,9.699
2023-03-21T12:06:22.625Z,6.199
2023-03-21T12:07:23.586Z,7.5
2023-03-21T12:08:23.240Z,5.599
2023-03-21T12:11:23.118Z,6
2023-03-21T12:12:30.030Z,7.699
2023-03-21T12:13:22.413Z,8.199
2023-03-21T12:14:23.172Z,6.099
2023-03-21T12:15:23.189Z,6.400
2023-03-21T12:16:23.067Z,7.5
2023-03-21T12:17:23.265Z,5.300
2023-03-21T12:18:23.001Z,6.800
2023-03-21T12:19:23.052Z,5.300
2023-03-21T12:20:22.615Z,8.199
2023-03-21T12:21:23.457Z,5.699
2023-03-21T12:22:23.022Z,5
2023-03-21T12:23:22.974Z,7.900
2023-03-21T12:24:23.614Z,5.300
2023-03-21T12:25:23.194Z,5.199
2023-03-21T12:26:23.131Z,5.599
2023-03-21T12:27:23.666Z,5.699
2023-03-21T12:28:31.945Z,5.800
2023-03-21T12:29:23.956Z,5.300
2023-03-21T12:30:23.931Z,5.699
2023-03-21T12:31:23.843Z,4.400
2023-03-21T12:32:23.066Z,5.800
2023-03-21T12:33:23.246Z,5.199
2023-03-21T12:34:22.394Z,5.900
2023-03-21T12:35:22.441Z,6.5
2023-03-21T12:36:22.928Z,5.900
2023-03-21T12:37:22.760Z,5.400
2023-03-21T12:38:20.843Z,4.599
2023-03-21T12:39:23.724Z,6.900
2023-03-21T12:40:23.740Z,7.199
2023-03-21T12:41:23.230Z,5.400
2023-03-21T12:42:23.131Z,5.099
2023-03-21T12:43:23.213Z,4.5
2023-03-21T12:44:22.986Z,5.300
2023-03-21T12:45:23.831Z,5.5
2023-03-21T12:46:23.310Z,5.199
2023-03-21T12:47:23.431Z,4.900
2023-03-21T12:48:23.058Z,5.199
2023-03-21T12:49:23.600Z,5
2023-03-21T12:50:23.496Z,5.900
2023-03-21T12:51:23.614Z,5
2023-03-21T12:52:23.072Z,4.5
2023-03-21T12:53:23.285Z,4.400
2023-03-21T12:54:24.204Z,4.599
2023-03-21T12:55:24.022Z,5
2023-03-21T12:56:23.688Z,4.599
2023-03-21T12:57:22.853Z,6
2023-03-21T12:58:22.713Z,5.099
2023-03-21T12:59:23.630Z,4.800
2023-03-21T13:00:24.478Z,5.900
2023-03-21T13:01:23.491Z,5
2023-03-21T13:02:27.822Z,5.5
2023-03-21T13:03:30.447Z,5
2023-03-21T13:04:23.921Z,5.800
2023-03-21T13:05:24.157Z,5.300
2023-03-21T13:06:23.824Z,4
2023-03-21T13:07:23.959Z,4.300
2023-03-21T13:08:23.935Z,6.099
2023-03-21T13:09:36.709Z,4.599
2023-03-21T13:10:22.854Z,4
2023-03-21T13:11:23.090Z,5
2023-03-21T13:12:23.258Z,4.900
2023-03-21T13:13:22.990Z,3.5
2023-03-21T13:14:23.494Z,5.300
2023-03-21T13:15:24.556Z,5.400
2023-03-21T13:17:23.459Z,4.599
2023-03-21T13:18:32.165Z,8.199
2023-03-21T13:19:23.485Z,6.800
2023-03-21T13:20:23.326Z,5.699
2023-03-21T13:21:23.343Z,6.199
2023-03-21T13:22:23.003Z,6.099
2023-03-21T13:23:23.591Z,5.199
2023-03-21T13:24:23.435Z,5.099
2023-03-21T13:25:23.356Z,4.599
2023-03-21T13:27:22.972Z,5.400
2023-03-21T13:28:22.341Z,4.699
2023-03-21T13:29:22.777Z,5.099
2023-03-21T13:30:23.660Z,5.300
2023-03-21T13:31:23.060Z,4
2023-03-21T13:32:23.763Z,5
2023-03-21T13:33:22.485Z,3.5
2023-03-21T13:34:23.426Z,3.400
2023-03-21T13:35:23.664Z,4.099
2023-03-21T13:36:23.180Z,4.5
2023-03-21T13:37:23.465Z,7.099
2023-03-21T13:38:23.636Z,5.699
2023-03-21T13:39:23.932Z,4.699